createdAt,value
2018-09-18T00:02:01.959Z,44.20
2018-09-18T00:04:29.545Z,44.20
2018-09-18T00:06:57.388Z,44.60
2018-09-18T00:09:25.333Z,44.40
2018-09-18T00:11:52.972Z,44.50
2018-09-18T00:14:21.376Z,44.50
2018-09-18T00:19:23.724Z,44.70
2018-09-18T00:21:51.346Z,44.80
2018-09-18T00:24:18.954Z,44.80
2018-09-18T00:26:46.638Z,44.90
2018-09-18T00:29:14.237Z,45.00
2018-09-18T00:31:42.012Z,45.00
2018-09-18T00:34:09.727Z,45.00
2018-09-18T00:36:37.345Z,45.20
2018-09-18T00:39:07.180Z,45.30
2018-09-18T00:41:34.833Z,45.30
2018-09-18T00:44:02.585Z,45.40
2018-09-18T00:46:30.220Z,45.50
2018-09-18T00:48:57.824Z,45.60
2018-09-18T00:51:25.821Z,45.60
2018-09-18T00:53:53.403Z,45.70
2018-09-18T00:56:20.991Z,45.70
2018-09-18T00:58:49.037Z,45.70
2018-09-18T01:01:16.645Z,45.80
2018-09-18T01:03:44.184Z,45.80
2018-09-18T01:06:12.411Z,45.90
2018-09-18T01:08:40.156Z,46.00
2018-09-18T01:11:07.733Z,46.10
2018-09-18T01:13:35.544Z,46.10
2018-09-18T01:16:03.184Z,46.20
2018-09-18T01:18:42.799Z,46.10
2018-09-18T01:21:11.465Z,46.20
2018-09-18T01:23:39.296Z,46.20
2018-09-18T01:26:07.044Z,46.30
2018-09-18T01:28:35.300Z,46.30
2018-09-18T01:31:03.636Z,46.30
2018-09-18T01:33:31.604Z,46.40
2018-09-18T01:35:59.195Z,46.40
2018-09-18T01:38:26.977Z,46.50
2018-09-18T01:40:54.832Z,46.50
2018-09-18T01:43:22.571Z,46.60
2018-09-18T01:45:50.248Z,46.60
2018-09-18T01:48:18.236Z,46.70
2018-09-18T01:50:45.862Z,46.70
2018-09-18T01:53:13.509Z,46.80
2018-09-18T01:55:41.391Z,46.80
2018-09-18T01:58:08.972Z,46.90
2018-09-18T02:00:36.561Z,46.90
2018-09-18T02:03:04.442Z,46.90
2018-09-18T02:05:32.510Z,46.90
2018-09-18T02:08:00.197Z,47.00
2018-09-18T02:10:27.754Z,47.00
2018-09-18T02:12:55.524Z,47.10
2018-09-18T02:15:23.180Z,47.10
2018-09-18T02:17:50.768Z,47.10
2018-09-18T02:20:18.401Z,47.10
2018-09-18T02:22:52.794Z,47.10
2018-09-18T02:25:20.586Z,47.10
2018-09-18T02:27:48.232Z,47.00
2018-09-18T02:30:16.230Z,47.00
2018-09-18T02:32:44.110Z,47.00
2018-09-18T02:35:11.781Z,47.10
2018-09-18T02:37:39.440Z,47.20
2018-09-18T02:40:07.027Z,47.20
2018-09-18T02:42:34.674Z,47.20
2018-09-18T02:45:02.676Z,47.30
2018-09-18T02:47:30.308Z,47.30
2018-09-18T02:49:57.919Z,47.30
2018-09-18T02:52:25.555Z,48.00
2018-09-18T02:54:53.222Z,47.50
2018-09-18T02:57:20.907Z,47.50
2018-09-18T02:59:48.681Z,47.50
2018-09-18T03:02:16.297Z,47.60
2018-09-18T03:04:44.675Z,47.50
2018-09-18T03:07:12.290Z,47.60
2018-09-18T03:09:39.966Z,47.60
2018-09-18T03:12:07.602Z,47.60
2018-09-18T03:14:35.598Z,47.60
2018-09-18T03:17:03.265Z,47.60
2018-09-18T03:19:30.912Z,47.60
2018-09-18T03:21:58.678Z,47.60
2018-09-18T03:24:26.624Z,47.60
2018-09-18T03:26:54.220Z,47.60
2018-09-18T03:29:21.847Z,47.70
2018-09-18T03:31:49.717Z,47.70
2018-09-18T03:34:17.335Z,47.70
2018-09-18T03:36:44.926Z,47.70
2018-09-18T03:39:12.698Z,47.70
2018-09-18T03:41:40.372Z,47.70
2018-09-18T03:44:07.981Z,47.70
2018-09-18T03:46:35.811Z,47.70
2018-09-18T03:49:03.447Z,47.70
2018-09-18T03:51:31.121Z,47.70
2018-09-18T03:53:59.140Z,47.80
2018-09-18T03:56:26.711Z,47.80
2018-09-18T03:58:54.299Z,47.90
2018-09-18T04:01:22.383Z,47.90
2018-09-18T04:03:50.096Z,47.90
2018-09-18T04:06:18.233Z,47.90
2018-09-18T04:08:46.105Z,47.90
2018-09-18T04:11:13.629Z,47.90
2018-09-18T04:13:41.328Z,48.00
2018-09-18T04:16:09.319Z,48.00
2018-09-18T04:18:37.048Z,48.10
2018-09-18T04:21:04.813Z,48.20
2018-09-18T04:23:32.519Z,48.20
2018-09-18T04:26:00.119Z,48.30
2018-09-18T04:28:28.004Z,48.20
2018-09-18T04:30:55.636Z,48.30
2018-09-18T04:33:23.256Z,47.90
2018-09-18T04:35:51.020Z,48.30
2018-09-18T04:38:20.059Z,48.40
2018-09-18T04:40:47.754Z,48.40
2018-09-18T04:43:15.625Z,48.50
2018-09-18T04:45:43.357Z,48.50
2018-09-18T04:48:11.020Z,48.70
2018-09-18T04:50:38.667Z,48.70
2018-09-18T04:53:06.467Z,48.70
2018-09-18T04:55:34.108Z,48.80
2018-09-18T04:58:03.052Z,48.90
2018-09-18T05:00:30.645Z,48.90
2018-09-18T05:02:58.715Z,49.00
2018-09-18T05:05:26.299Z,49.30
2018-09-18T05:07:54.809Z,49.10
2018-09-18T05:10:22.479Z,49.20
2018-09-18T05:12:50.504Z,49.20
2018-09-18T05:15:18.523Z,49.30
2018-09-18T05:17:46.854Z,49.40
2018-09-18T05:20:14.498Z,49.40
2018-09-18T05:22:42.180Z,49.50
2018-09-18T05:25:10.049Z,49.50
2018-09-18T05:27:37.683Z,49.50
2018-09-18T05:30:05.594Z,49.60
2018-09-18T05:32:33.339Z,49.60
2018-09-18T05:35:00.983Z,49.80
2018-09-18T05:37:28.651Z,49.70
2018-09-18T05:39:56.649Z,49.70
2018-09-18T05:42:24.268Z,49.70
2018-09-18T05:44:51.940Z,49.70
2018-09-18T05:47:19.968Z,49.30
2018-09-18T05:49:47.751Z,49.80
2018-09-18T05:52:15.524Z,49.80
2018-09-18T05:54:43.655Z,49.80
2018-09-18T05:57:11.372Z,49.90
2018-09-18T05:59:38.951Z,50.00
2018-09-18T06:02:06.871Z,50.10
2018-09-18T06:04:34.478Z,50.20
2018-09-18T06:07:02.339Z,50.30
2018-09-18T06:09:30.215Z,50.30
2018-09-18T06:11:58.209Z,50.40
2018-09-18T06:14:25.862Z,50.40
2018-09-18T06:19:21.666Z,49.80
2018-09-18T06:21:49.299Z,50.30
2018-09-18T06:24:17.059Z,50.20
2018-09-18T06:26:44.719Z,50.10
2018-09-18T06:29:12.407Z,50.00
2018-09-18T06:31:40.050Z,49.50
2018-09-18T06:34:08.219Z,49.20
2018-09-18T06:36:35.880Z,48.70
2018-09-18T06:39:06.562Z,48.30
2018-09-18T06:41:34.404Z,47.70
2018-09-18T06:44:02.244Z,47.20
2018-09-18T06:46:29.978Z,46.70
2018-09-18T06:48:57.897Z,46.20
2018-09-18T06:51:25.539Z,45.90
2018-09-18T06:53:53.216Z,45.50
2018-09-18T06:56:21.291Z,45.80
2018-09-18T06:58:48.954Z,44.70
2018-09-18T07:01:16.604Z,44.20
2018-09-18T07:03:44.565Z,43.90
2018-09-18T07:06:12.789Z,43.60
2018-09-18T07:08:41.011Z,43.30
2018-09-18T07:11:08.834Z,43.00
2018-09-18T07:13:36.859Z,42.50
2018-09-18T07:16:04.628Z,41.90
2018-09-18T07:18:32.495Z,41.60
2018-09-18T07:21:00.156Z,41.20
2018-09-18T07:23:27.809Z,40.70
2018-09-18T07:25:55.665Z,40.10
2018-09-18T07:28:23.363Z,39.40
2018-09-18T07:30:51.369Z,38.70
2018-09-18T07:33:19.025Z,38.10
2018-09-18T07:35:46.725Z,37.70
2018-09-18T07:38:14.735Z,37.30
2018-09-18T07:40:42.403Z,36.80
2018-09-18T07:43:10.012Z,36.50
2018-09-18T07:45:38.002Z,36.00
2018-09-18T07:48:05.760Z,35.40
2018-09-18T07:50:33.422Z,34.80
2018-09-18T07:53:01.374Z,34.40
2018-09-18T07:55:29.054Z,34.10
2018-09-18T07:57:56.793Z,34.00
2018-09-18T08:00:24.683Z,34.10
2018-09-18T08:02:52.366Z,34.70
2018-09-18T08:05:20.107Z,34.80
2018-09-18T08:07:47.881Z,34.00
2018-09-18T08:10:16.150Z,33.90
2018-09-18T08:12:43.790Z,33.90
2018-09-18T08:15:11.693Z,33.90
2018-09-18T08:17:39.346Z,33.60
2018-09-18T08:20:07.456Z,33.30
2018-09-18T08:22:35.148Z,33.10
2018-09-18T08:25:03.788Z,33.10
2018-09-18T08:27:31.647Z,33.10
2018-09-18T08:29:59.304Z,32.70
2018-09-18T08:32:27.136Z,32.40
2018-09-18T08:34:54.867Z,32.00
2018-09-18T08:37:22.476Z,31.70
2018-09-18T08:39:50.442Z,31.40
2018-09-18T08:42:18.032Z,31.30
2018-09-18T08:44:45.704Z,31.30
2018-09-18T08:47:13.506Z,31.10
2018-09-18T08:49:41.898Z,30.80
2018-09-18T08:52:09.607Z,30.60
2018-09-18T08:54:37.443Z,30.40
2018-09-18T08:57:05.360Z,30.50
2018-09-18T08:59:33.297Z,30.70
2018-09-18T09:02:01.041Z,30.60
2018-09-18T09:04:28.618Z,30.50
2018-09-18T09:06:56.481Z,30.40
2018-09-18T09:09:24.119Z,31.10
2018-09-18T09:11:52.338Z,30.10
2018-09-18T09:14:20.199Z,29.90
2018-09-18T09:16:47.721Z,29.70
2018-09-18T09:19:15.371Z,29.60
2018-09-18T09:21:43.317Z,29.50
2018-09-18T09:24:10.846Z,29.40
2018-09-18T09:26:38.508Z,29.30
2018-09-18T09:29:06.424Z,29.30
2018-09-18T09:31:34.077Z,29.20
2018-09-18T09:34:02.881Z,28.90
2018-09-18T09:36:30.598Z,28.80
2018-09-18T09:38:58.349Z,28.90
2018-09-18T09:41:25.982Z,28.90
2018-09-18T09:43:54.042Z,28.80
2018-09-18T09:46:21.541Z,28.70
2018-09-18T09:48:49.169Z,28.60
2018-09-18T09:51:16.896Z,28.50
2018-09-18T09:53:44.579Z,28.50
2018-09-18T09:56:12.200Z,28.50
2018-09-18T09:58:39.965Z,28.30
2018-09-18T10:01:14.190Z,28.10
2018-09-18T10:03:41.908Z,28.20
2018-09-18T10:06:09.490Z,28.30
2018-09-18T10:08:37.122Z,28.10
2018-09-18T10:11:04.976Z,28.00
2018-09-18T10:13:32.844Z,28.10
2018-09-18T10:16:00.496Z,28.10
2018-09-18T10:18:28.198Z,28.00
2018-09-18T10:20:55.870Z,27.90
2018-09-18T10:23:23.486Z,27.60
2018-09-18T10:25:51.479Z,27.60
2018-09-18T10:28:19.340Z,27.60
2018-09-18T10:30:47.044Z,27.50
2018-09-18T10:33:14.864Z,27.50
2018-09-18T10:35:43.411Z,27.40
2018-09-18T10:38:11.389Z,27.40
2018-09-18T10:40:39.721Z,27.30
2018-09-18T10:43:10.023Z,27.20
2018-09-18T10:45:37.653Z,27.10
2018-09-18T10:48:05.580Z,26.70
2018-09-18T10:50:33.233Z,26.70
2018-09-18T10:53:01.019Z,26.40
2018-09-18T10:55:28.822Z,26.00
2018-09-18T10:57:56.500Z,25.80
2018-09-18T11:00:24.125Z,25.70
2018-09-18T11:02:52.330Z,25.80
2018-09-18T11:05:20.011Z,25.70
2018-09-18T11:07:47.809Z,25.60
2018-09-18T11:10:15.395Z,25.50
2018-09-18T11:12:42.961Z,25.40
2018-09-18T11:15:10.576Z,25.40
2018-09-18T11:17:38.442Z,25.40
2018-09-18T11:20:06.165Z,25.30
2018-09-18T11:22:33.884Z,25.20
2018-09-18T11:25:01.616Z,25.10
2018-09-18T11:27:30.078Z,25.00
2018-09-18T11:29:57.724Z,24.90
2018-09-18T11:32:25.356Z,25.20
2018-09-18T11:34:53.140Z,24.60
2018-09-18T11:37:21.456Z,24.60
2018-09-18T11:39:49.217Z,24.60
2018-09-18T11:42:16.943Z,24.50
2018-09-18T11:44:44.547Z,24.40
2018-09-18T11:47:12.300Z,24.30
2018-09-18T11:49:40.360Z,24.10
2018-09-18T11:52:07.983Z,23.80
2018-09-18T11:54:35.639Z,23.50
2018-09-18T11:57:03.375Z,23.40
2018-09-18T11:59:31.001Z,23.40
2018-09-18T12:01:58.623Z,23.10
2018-09-18T12:04:26.661Z,23.60
2018-09-18T12:06:54.764Z,23.20
2018-09-18T12:09:22.528Z,23.30
2018-09-18T12:11:50.240Z,23.30
2018-09-18T12:14:18.215Z,23.10
2018-09-18T12:16:45.888Z,23.50
2018-09-18T12:19:13.605Z,23.10
2018-09-18T12:21:41.551Z,23.00
2018-09-18T12:24:09.315Z,23.00
2018-09-18T12:26:37.136Z,22.90
2018-09-18T12:29:06.073Z,22.90
2018-09-18T12:31:33.761Z,23.00
2018-09-18T12:34:01.733Z,22.90
2018-09-18T12:36:29.724Z,22.90
2018-09-18T12:38:57.445Z,22.80
2018-09-18T12:41:25.265Z,22.80
2018-09-18T12:43:53.478Z,22.80
2018-09-18T12:46:23.000Z,22.80
2018-09-18T12:48:50.688Z,22.70
2018-09-18T12:51:18.476Z,22.60
2018-09-18T12:53:46.225Z,22.60
2018-09-18T12:56:13.965Z,22.50
2018-09-18T12:58:42.250Z,22.40
2018-09-18T13:01:10.423Z,22.40
2018-09-18T13:03:37.857Z,22.40
2018-09-18T13:06:06.349Z,22.50
2018-09-18T13:08:33.977Z,22.50
2018-09-18T13:11:01.593Z,22.60
2018-09-18T13:13:29.950Z,22.50
2018-09-18T13:15:57.685Z,22.30
2018-09-18T13:18:25.409Z,22.30
2018-09-18T13:20:53.372Z,22.20
2018-09-18T13:23:21.011Z,22.10
2018-09-18T13:28:16.136Z,21.90
2018-09-18T13:30:43.737Z,21.90
2018-09-18T13:33:11.475Z,22.00
2018-09-18T13:35:39.091Z,22.00
2018-09-18T13:38:06.825Z,22.00
2018-09-18T13:43:01.691Z,21.90
2018-09-18T13:45:29.388Z,22.00
2018-09-18T13:50:25.192Z,22.10
2018-09-18T13:52:52.969Z,22.00
2018-09-18T13:57:48.856Z,22.00
2018-09-18T14:00:16.577Z,22.00
2018-09-18T14:05:11.549Z,22.00
2018-09-18T14:07:39.323Z,22.10
2018-09-18T14:10:10.106Z,22.20
2018-09-18T14:12:37.777Z,22.30
2018-09-18T14:15:06.243Z,22.30
2018-09-18T14:17:33.850Z,22.30
2018-09-18T14:20:01.501Z,22.30
2018-09-18T14:22:29.428Z,22.20
2018-09-18T14:24:57.126Z,22.30
2018-09-18T14:27:24.859Z,22.20
2018-09-18T14:32:19.906Z,22.20
2018-09-18T14:34:47.677Z,22.10
2018-09-18T14:37:15.549Z,22.20
2018-09-18T14:39:43.966Z,22.20
2018-09-18T14:42:11.596Z,22.30
2018-09-18T14:44:39.392Z,22.20
2018-09-18T14:47:07.049Z,22.20
2018-09-18T14:49:34.721Z,22.30
2018-09-18T14:54:29.866Z,22.30
2018-09-18T14:56:57.463Z,22.60
2018-09-18T15:01:52.614Z,22.70
2018-09-18T15:04:20.644Z,22.70
2018-09-18T15:06:48.227Z,22.80
2018-09-18T15:09:15.901Z,22.80
2018-09-18T15:11:43.656Z,22.80
2018-09-18T15:14:11.261Z,22.80
2018-09-18T15:16:38.871Z,22.90
2018-09-18T15:19:07.689Z,22.90
2018-09-18T15:21:35.382Z,22.90
2018-09-18T15:24:03.120Z,23.10
2018-09-18T15:28:58.832Z,23.20
2018-09-18T15:31:26.417Z,23.10
2018-09-18T15:33:54.276Z,22.80
2018-09-18T15:36:22.536Z,23.30
2018-09-18T15:38:50.156Z,23.40
2018-09-18T15:43:45.423Z,23.40
2018-09-18T15:46:13.035Z,23.50
2018-09-18T15:51:08.023Z,23.50
2018-09-18T15:53:35.700Z,23.60
2018-09-18T15:58:31.328Z,23.80
2018-09-18T16:00:58.940Z,24.00
2018-09-18T16:03:26.973Z,24.10
2018-09-18T16:05:54.703Z,24.20
2018-09-18T16:08:22.312Z,24.30
2018-09-18T16:10:50.572Z,24.40
2018-09-18T16:15:45.389Z,24.50
2018-09-18T16:18:14.881Z,24.60
2018-09-18T16:20:42.498Z,24.70
2018-09-18T16:25:42.386Z,24.90
2018-09-18T16:28:10.219Z,25.00
2018-09-18T16:33:05.662Z,25.10
2018-09-18T16:35:33.280Z,25.20
2018-09-18T16:38:01.072Z,25.30
2018-09-18T16:40:28.831Z,25.40
2018-09-18T16:42:56.289Z,25.60
2018-09-18T16:47:51.225Z,25.80
2018-09-18T16:50:18.877Z,25.90
2018-09-18T16:52:46.648Z,26.00
2018-09-18T16:55:14.294Z,26.10
2018-09-18T17:00:09.187Z,26.40
2018-09-18T17:02:36.822Z,26.40
2018-09-18T17:07:32.171Z,26.60
2018-09-18T17:09:59.701Z,26.70
2018-09-18T17:12:27.944Z,26.80
2018-09-18T17:14:55.489Z,26.90
2018-09-18T17:19:50.522Z,27.10
2018-09-18T17:22:18.235Z,27.10
2018-09-18T17:24:45.875Z,27.30
2018-09-18T17:27:13.449Z,27.40
2018-09-18T17:29:41.051Z,27.50
2018-09-18T17:32:08.580Z,27.70
2018-09-18T17:34:36.220Z,27.70
2018-09-18T17:37:04.358Z,27.90
2018-09-18T17:39:31.968Z,28.10
2018-09-18T17:41:59.895Z,28.20
2018-09-18T17:44:27.530Z,28.30
2018-09-18T17:46:55.100Z,28.50
2018-09-18T17:49:23.129Z,28.60
2018-09-18T17:51:51.119Z,28.80
2018-09-18T17:54:19.744Z,28.90
2018-09-18T17:56:47.443Z,29.10
2018-09-18T17:59:15.062Z,29.20
2018-09-18T18:01:42.824Z,29.20
2018-09-18T18:04:10.446Z,29.40
2018-09-18T18:06:38.177Z,29.50
2018-09-18T18:09:08.253Z,29.60
2018-09-18T18:11:35.903Z,29.70
2018-09-18T18:14:04.281Z,29.90
2018-09-18T18:16:31.988Z,29.90
2018-09-18T18:18:59.698Z,30.00
2018-09-18T18:21:27.793Z,30.10
2018-09-18T18:23:55.657Z,30.20
2018-09-18T18:26:23.491Z,30.30
2018-09-18T18:28:51.177Z,30.40
2018-09-18T18:31:19.076Z,30.60
2018-09-18T18:33:46.716Z,30.60
2018-09-18T18:36:14.374Z,30.80
2018-09-18T18:38:42.357Z,30.90
2018-09-18T18:41:10.204Z,31.00
2018-09-18T18:43:38.237Z,31.20
2018-09-18T18:46:06.310Z,30.80
2018-09-18T18:48:33.972Z,31.50
2018-09-18T18:51:01.709Z,31.60
2018-09-18T18:53:29.736Z,31.70
2018-09-18T18:55:57.378Z,32.50
2018-09-18T18:58:25.039Z,32.00
2018-09-18T19:00:52.904Z,32.20
2018-09-18T19:03:20.488Z,32.30
2018-09-18T19:05:48.111Z,32.50
2018-09-18T19:08:16.110Z,32.60
2018-09-18T19:10:44.934Z,32.70
2018-09-18T19:13:12.527Z,32.90
2018-09-18T19:15:40.703Z,33.00
2018-09-18T19:18:08.256Z,33.10
2018-09-18T19:20:35.914Z,33.10
2018-09-18T19:23:03.631Z,33.30
2018-09-18T19:25:31.426Z,33.40
2018-09-18T19:27:59.360Z,33.50
2018-09-18T19:30:27.695Z,33.60
2018-09-18T19:32:55.484Z,33.70
2018-09-18T19:35:23.017Z,33.90
2018-09-18T19:37:50.823Z,33.90
2018-09-18T19:40:19.273Z,34.10
2018-09-18T19:42:47.175Z,34.20
2018-09-18T19:45:15.170Z,34.30
2018-09-18T19:47:42.724Z,34.50
2018-09-18T19:50:14.316Z,34.50
2018-09-18T19:52:42.792Z,34.60
2018-09-18T19:55:10.370Z,34.70
2018-09-18T19:57:38.040Z,34.80
2018-09-18T20:00:07.425Z,34.90
2018-09-18T20:02:34.989Z,35.00
2018-09-18T20:05:02.644Z,35.10
2018-09-18T20:07:30.344Z,35.20
2018-09-18T20:09:58.343Z,35.30
2018-09-18T20:12:25.928Z,35.30
2018-09-18T20:14:53.530Z,35.40
2018-09-18T20:17:21.401Z,35.60
2018-09-18T20:19:48.989Z,35.70
2018-09-18T20:22:16.802Z,35.70
2018-09-18T20:24:44.445Z,35.90
2018-09-18T20:27:12.353Z,36.10
2018-09-18T20:29:40.090Z,36.20
2018-09-18T20:32:07.620Z,36.40
2018-09-18T20:34:35.778Z,36.40
2018-09-18T20:37:04.520Z,36.50
2018-09-18T20:39:32.259Z,36.70
2018-09-18T20:41:59.923Z,36.70
2018-09-18T20:44:27.696Z,36.90
2018-09-18T20:46:55.564Z,36.90
2018-09-18T20:49:23.521Z,37.00
2018-09-18T20:51:51.176Z,37.20
2018-09-18T20:54:18.806Z,37.20
2018-09-18T20:56:46.711Z,37.40
2018-09-18T20:59:14.295Z,37.50
2018-09-18T21:01:42.135Z,37.50
2018-09-18T21:04:09.814Z,38.00
2018-09-18T21:06:37.422Z,37.70
2018-09-18T21:09:06.878Z,37.90
2018-09-18T21:11:34.405Z,38.10
2018-09-18T21:14:02.183Z,38.10
2018-09-18T21:16:30.080Z,38.20
2018-09-18T21:18:57.713Z,38.30
2018-09-18T21:21:25.601Z,38.50
2018-09-18T21:23:53.316Z,38.60
2018-09-18T21:26:20.934Z,38.70
2018-09-18T21:28:49.909Z,38.90
2018-09-18T21:31:17.582Z,38.80
2018-09-18T21:33:45.164Z,39.00
2018-09-18T21:36:13.388Z,39.10
2018-09-18T21:38:40.967Z,39.30
2018-09-18T21:41:08.620Z,39.70
2018-09-18T21:43:37.289Z,39.50
2018-09-18T21:46:05.205Z,39.50
2018-09-18T21:48:32.888Z,40.30
2018-09-18T21:51:01.380Z,39.70
2018-09-18T21:53:29.460Z,39.80
2018-09-18T21:55:57.702Z,40.00
2018-09-18T21:58:26.656Z,40.00
2018-09-18T22:00:54.549Z,40.70
2018-09-18T22:03:22.275Z,40.20
2018-09-18T22:05:50.421Z,40.30
2018-09-18T22:08:18.128Z,40.40
2018-09-18T22:10:45.804Z,40.50
2018-09-18T22:13:14.169Z,40.70
2018-09-18T22:15:42.120Z,40.80
2018-09-18T22:18:09.741Z,40.80
2018-09-18T22:20:37.498Z,41.00
2018-09-18T22:23:07.645Z,41.10
2018-09-18T22:25:39.862Z,41.20
2018-09-18T22:28:14.369Z,41.30
2018-09-18T22:30:47.929Z,41.30
2018-09-18T22:33:16.036Z,41.50
2018-09-18T22:35:43.653Z,41.50
2018-09-18T22:38:11.559Z,41.70
2018-09-18T22:40:39.211Z,41.80
2018-09-18T22:43:21.209Z,42.40
2018-09-18T22:46:07.982Z,42.00
2018-09-18T22:48:38.626Z,42.00
2018-09-18T22:51:10.790Z,42.80
2018-09-18T22:53:39.005Z,42.30
2018-09-18T22:56:12.371Z,42.40
2018-09-18T22:58:40.082Z,42.60
2018-09-18T23:01:17.337Z,42.60
2018-09-18T23:03:45.004Z,42.80
2018-09-18T23:06:12.846Z,42.80
2018-09-18T23:08:40.410Z,43.00
2018-09-18T23:11:11.360Z,43.10
2018-09-18T23:13:38.834Z,43.30
2018-09-18T23:16:07.467Z,43.40
2018-09-18T23:18:35.309Z,43.50
2018-09-18T23:21:03.810Z,43.70
2018-09-18T23:23:31.346Z,43.60
2018-09-18T23:25:59.132Z,43.80
2018-09-18T23:28:26.746Z,43.90
2018-09-18T23:30:54.374Z,44.00
2018-09-18T23:33:22.058Z,44.00
2018-09-18T23:35:49.604Z,44.20
2018-09-18T23:38:17.165Z,44.30
2018-09-18T23:40:45.950Z,44.50
2018-09-18T23:43:13.578Z,45.20
2018-09-18T23:45:41.157Z,44.70
2018-09-18T23:48:09.056Z,44.70
2018-09-18T23:50:36.632Z,44.70
2018-09-18T23:53:04.644Z,45.00
2018-09-18T23:55:32.552Z,45.10
2018-09-18T23:58:00.136Z,45.20
